Share

Americus, KS

East Emporia Kansas (KKSEMPOR3) Elev 1106 ft | 38.39 °N, 96.12 °W | Change Station

Current weather conditions updated 5 minutes ago

Haze
Haze
74.5 °F
Feels Like 77 °F
N
13.5
Wind Variable Wind from SW
Sunrise 6:43 AM
Sunset 8:05 PM
Moon Waning Gibbous

Today is forecast to be Warmer than yesterday.

Pressure 30.10 in
Visibility 6.0 miles
Clouds Clear
Heat Index 77 °F
Dew Point 51 °F
Humidity 44%
Rainfall 0.00 in
Snow Depth Not available.
UV 9 out of 16
Pollen 11.30 out of 12
Air Quality Not available.
Flu Activity No Activity
METAR KEMP 191653Z AUTO 17022G28KT 6SM HZ CLR 23/07 A3010 RMK AO2 PK WND 20032/1639 SLP191 T02280067

More Conditions Fewer Conditions

Pressure 30.10 in
Visibility 6.0 miles
Clouds Clear
Heat Index 77 °F
Dew Point 51 °F
Humidity 44%
Rainfall 0.00 in
Snow Depth Not available.
UV 9 out of 16
Pollen 11.30 out of 12
Air Quality Not available.
Flu Activity No Activity
METAR KEMP 191653Z AUTO 17022G28KT 6SM HZ CLR 23/07 A3010 RMK AO2 PK WND 20032/1639 SLP191 T02280067

More Conditions Fewer Conditions

10-Day Weather Forecast

Almanac

Astronomy

Apr. 19, 2014 Rise Set
Actual Time 6:43 AM CDT 8:05 PM CDT
Civil Twilight 6:15 AM CDT 8:33 PM CDT
Nautical Twilight 5:42 AM CDT 9:06 PM CDT
Astronomical Twilight 5:07 AM CDT 9:41 PM CDT
Moon No Moon Rise 10:04 AM CDT
Length of Visible Light 14h 17m
Length of Day
13h 22m
Tomorrow will be 2m 19s longer.
Waning Gibbous, 78% of the Moon is Illuminated
Today
Waning Gibbous
Apr 22
Last Quarter
Apr 29
New
May 6
First Quarter
May 14
Full

Today's Extremes

State Highs State Lows

Community

  • A Glorious Morning
    A Glorious Morning
  • Tender Rays Of Hope
    Tender Rays Of Hope
  • Bleeding Hearts
    Bleeding Hearts
  • Sunset Silhouettes
    Sunset Silhouettes
  • FL sunset Perico Isle
    FL sunset Perico Isle

WunderPhotos

Upload Photos

1,702,810 photos uploaded!

WunderBlogs® & News

Nearby

Snow Depth

Station Depth Elevation
No new snow has been reported.

Coastal Water Temperatures

Place Temperature
No Stations Reporting

Earthquake Activity

City Distance Mag. Time & Date
Medford, Oklahoma 142 miles 3.0 5:38 PM CDT
2014-04-12
Minimum magnitude displayed is 2.5.

Nearby Weather Stations

Station Location Temp. Heat Index Dew Point Humidity Wind Precip. Elev Updated Type
East Emporia Kansas, Emporia, KS 74.5 °F 77 °F 51 °F 44% SW  at  13.5 mph - / hr 1106 ft 12:31 PM CDT Normal
RAWS TALLGRASS PRAIRIE KS, Strong City, KS 74 °F 77 °F 45 °F 35% South  at  22 mph 0.00 in / hr 1230 ft 11:30 AM CDT MADIS
T-K Weather Station West Hartford, Kansa, Hartford, KS 76.3 °F 78 °F 50 °F 39% West  at  15.5 mph - / hr 1129 ft 12:25 PM CDT Normal

Show More Stations Show Fewer Stations

What do you think?

We're not finished. Please let us know what you like, what you don't like, and what you are still missing.